Bonaria — ICUS — position and weather

sailwx.info

Track history (hours):
 
Tides and Currents Weather Stations Pressure Air Temp Water Temp Dewpoint Dewpoint Depression Visibility Wind Speed Wind Dir Waves Ship Positions

Bonaria

Last reported at 2016-Jun-26 19:05 UTC. Time now 2016-Jun-27 00:35 UTC.
Position N 41°58' E 011°36'.

Length 214 m; draft 6 m.

Type: Passenger vessel. MMSI: 247322400.

Date/timePositionNaut miles runAvg speedWind from/ knotsBaromVisibWave heightAir tempDewpointWater temp
2016-Jun-26 19:05N 41°58' E 011°36'11 2.0
2016-Jun-26 13:33N 42°06' E 011°47'0 0.0
2016-Jun-26 11:33N 42°06' E 011°47'74 8.1
2016-Jun-26 02:27N 41°01' E 010°59'13020.4
2016-Jun-25 20:04N 39°05' E 009°42'1019.7
2016-Jun-25 19:32N 38°59' E 009°32'2020.4
2016-Jun-25 18:32N 39°09' E 009°09'4 4.1
2016-Jun-25 17:33N 39°13' E 009°06'0 0.0
2016-Jun-25 16:33N 39°13' E 009°06'0 0.0
2016-Jun-25 15:33N 39°13' E 009°06'0 0.0
2016-Jun-25 09:32N 39°13' E 009°06'0 0.0
2016-Jun-25 08:32N 39°13' E 009°06'1111.2
2016-Jun-25 07:33N 39°05' E 009°17'6 0.1
2016-Jun-23 18:33N 39°08' E 009°11'6 5.8
2016-Jun-23 17:33N 39°13' E 009°06'0 0.0
2016-Jun-23 16:33N 39°13' E 009°06'0 0.0
2016-Jun-23 15:32N 39°13' E 009°06'0 0.0
2016-Jun-23 14:32N 39°13' E 009°06'0 0.0
2016-Jun-23 13:31N 39°13' E 009°06'0 0.0
2016-Jun-23 12:31N 39°13' E 009°06'0 0.0
2016-Jun-23 11:31N 39°13' E 009°06'0 0.0
2016-Jun-23 10:33N 39°13' E 009°06'0 0.0
2016-Jun-23 09:33N 39°13' E 009°06'0 0.0
2016-Jun-23 08:32N 39°13' E 009°06'8 7.9
2016-Jun-23 07:34N 39°07' E 009°13'3 0.1
2016-Jun-21 18:33N 39°09' E 009°10'5 4.6
2016-Jun-21 17:33N 39°13' E 009°06'0 0.0
2016-Jun-21 16:32N 39°13' E 009°06'0 0.0
2016-Jun-21 15:32N 39°13' E 009°06'0 0.0
2016-Jun-21 14:33N 39°13' E 009°06'0 0.0
2016-Jun-21 12:29N 39°13' E 009°06'0 0.0
2016-Jun-21 11:33N 39°13' E 009°06'0 0.0
2016-Jun-21 10:33N 39°13' E 009°06'0 0.0
2016-Jun-21 09:33N 39°13' E 009°06'0 0.0
2016-Jun-21 08:33N 39°13' E 009°06'0 0.0
2016-Jun-21 07:33N 39°13' E 009°06'7 0.2
2016-Jun-19 17:33N 39°08' E 009°12'7 6.8
2016-Jun-19 16:33N 39°13' E 009°06'0 0.0
2016-Jun-19 15:33N 39°13' E 009°06'0 0.0
2016-Jun-19 14:32N 39°13' E 009°06'0 0.0
2016-Jun-19 13:32N 39°13' E 009°06'0 0.0
2016-Jun-19 12:32N 39°13' E 009°06'0 0.0
2016-Jun-19 11:31N 39°13' E 009°06'0 0.0
2016-Jun-19 10:31N 39°13' E 009°06'0 0.0
2016-Jun-19 09:33N 39°13' E 009°06'0 0.0
2016-Jun-19 08:33N 39°13' E 009°06'0 0.0
2016-Jun-19 07:32N 39°13' E 009°06'0 0.0
2016-Jun-19 06:34N 39°13' E 009°06'1312.7
2016-Jun-19 05:33N 39°04' E 009°19'11 0.3
2016-Jun-17 19:32N 38°59' E 009°32'1919.7
2016-Jun-17 18:33N 39°08' E 009°10'5 5.3
2016-Jun-17 17:33N 39°13' E 009°06'0 0.0
2016-Jun-17 16:33N 39°13' E 009°06'0 0.0
2016-Jun-17 15:32N 39°13' E 009°06'0 0.0
2016-Jun-17 14:32N 39°13' E 009°06'0 0.0
2016-Jun-17 13:32N 39°13' E 009°06'0 0.0
2016-Jun-17 12:31N 39°13' E 009°06'0 0.0
2016-Jun-17 11:31N 39°13' E 009°06'0 0.0
2016-Jun-17 10:33N 39°13' E 009°06'0 0.0
2016-Jun-17 09:33N 39°13' E 009°06'0 0.0
2016-Jun-17 08:32N 39°13' E 009°06'0 0.0
2016-Jun-17 07:32N 39°13' E 009°06'0 0.0
2016-Jun-17 06:33N 39°13' E 009°06'1111.1
2016-Jun-17 05:33N 39°06' E 009°18'  
Track history (hours):
 
Tides and Currents Weather Stations Pressure Air Temp Water Temp Dewpoint Dewpoint Depression Visibility Wind Speed Wind Dir Waves Ship Positions

Bonaria

Last reported at 2016-Jun-26 19:05 UTC. Time now 2016-Jun-27 00:35 UTC.
Position N 41°58' E 011°36'.

Length 214 m; draft 6 m.

Type: Passenger vessel. MMSI: 247322400.

Date/timePositionNaut miles runAvg speedWind from/ knotsBaromVisibWave heightAir tempDewpointWater temp
2016-Jun-26 19:05N 41°58' E 011°36'11 2.0
2016-Jun-26 13:33N 42°06' E 011°47'0 0.0
2016-Jun-26 11:33N 42°06' E 011°47'74 8.1
2016-Jun-26 02:27N 41°01' E 010°59'13020.4
2016-Jun-25 20:04N 39°05' E 009°42'1019.7
2016-Jun-25 19:32N 38°59' E 009°32'2020.4
2016-Jun-25 18:32N 39°09' E 009°09'4 4.1
2016-Jun-25 17:33N 39°13' E 009°06'0 0.0
2016-Jun-25 16:33N 39°13' E 009°06'0 0.0
2016-Jun-25 15:33N 39°13' E 009°06'0 0.0
2016-Jun-25 09:32N 39°13' E 009°06'0 0.0
2016-Jun-25 08:32N 39°13' E 009°06'1111.2
2016-Jun-25 07:33N 39°05' E 009°17'6 0.1
2016-Jun-23 18:33N 39°08' E 009°11'6 5.8
2016-Jun-23 17:33N 39°13' E 009°06'0 0.0
2016-Jun-23 16:33N 39°13' E 009°06'0 0.0
2016-Jun-23 15:32N 39°13' E 009°06'0 0.0
2016-Jun-23 14:32N 39°13' E 009°06'0 0.0
2016-Jun-23 13:31N 39°13' E 009°06'0 0.0
2016-Jun-23 12:31N 39°13' E 009°06'0 0.0
2016-Jun-23 11:31N 39°13' E 009°06'0 0.0
2016-Jun-23 10:33N 39°13' E 009°06'0 0.0
2016-Jun-23 09:33N 39°13' E 009°06'0 0.0
2016-Jun-23 08:32N 39°13' E 009°06'8 7.9
2016-Jun-23 07:34N 39°07' E 009°13'3 0.1
2016-Jun-21 18:33N 39°09' E 009°10'5 4.6
2016-Jun-21 17:33N 39°13' E 009°06'0 0.0
2016-Jun-21 16:32N 39°13' E 009°06'0 0.0
2016-Jun-21 15:32N 39°13' E 009°06'0 0.0
2016-Jun-21 14:33N 39°13' E 009°06'0 0.0
2016-Jun-21 12:29N 39°13' E 009°06'0 0.0
2016-Jun-21 11:33N 39°13' E 009°06'0 0.0
2016-Jun-21 10:33N 39°13' E 009°06'0 0.0
2016-Jun-21 09:33N 39°13' E 009°06'0 0.0
2016-Jun-21 08:33N 39°13' E 009°06'0 0.0
2016-Jun-21 07:33N 39°13' E 009°06'7 0.2
2016-Jun-19 17:33N 39°08' E 009°12'7 6.8
2016-Jun-19 16:33N 39°13' E 009°06'0 0.0
2016-Jun-19 15:33N 39°13' E 009°06'0 0.0
2016-Jun-19 14:32N 39°13' E 009°06'0 0.0
2016-Jun-19 13:32N 39°13' E 009°06'0 0.0
2016-Jun-19 12:32N 39°13' E 009°06'0 0.0
2016-Jun-19 11:31N 39°13' E 009°06'0 0.0
2016-Jun-19 10:31N 39°13' E 009°06'0 0.0
2016-Jun-19 09:33N 39°13' E 009°06'0 0.0
2016-Jun-19 08:33N 39°13' E 009°06'0 0.0
2016-Jun-19 07:32N 39°13' E 009°06'0 0.0
2016-Jun-19 06:34N 39°13' E 009°06'1312.7
2016-Jun-19 05:33N 39°04' E 009°19'11 0.3
2016-Jun-17 19:32N 38°59' E 009°32'1919.7
2016-Jun-17 18:33N 39°08' E 009°10'5 5.3
2016-Jun-17 17:33N 39°13' E 009°06'0 0.0
2016-Jun-17 16:33N 39°13' E 009°06'0 0.0
2016-Jun-17 15:32N 39°13' E 009°06'0 0.0
2016-Jun-17 14:32N 39°13' E 009°06'0 0.0
2016-Jun-17 13:32N 39°13' E 009°06'0 0.0
2016-Jun-17 12:31N 39°13' E 009°06'0 0.0
2016-Jun-17 11:31N 39°13' E 009°06'0 0.0
2016-Jun-17 10:33N 39°13' E 009°06'0 0.0
2016-Jun-17 09:33N 39°13' E 009°06'0 0.0
2016-Jun-17 08:32N 39°13' E 009°06'0 0.0
2016-Jun-17 07:32N 39°13' E 009°06'0 0.0
2016-Jun-17 06:33N 39°13' E 009°06'1111.1
2016-Jun-17 05:33N 39°06' E 009°18'  

Dump ship's entire track history